createdAt,value
2023-04-18T00:01:49.061Z,7.20
2023-04-18T00:04:18.244Z,7.51
2023-04-18T00:06:47.540Z,7.33
2023-04-18T00:09:14.369Z,4.39
2023-04-18T00:11:41.351Z,5.38
2023-04-18T00:16:36.334Z,6.42
2023-04-18T00:19:05.202Z,6.64
2023-04-18T00:21:32.679Z,6.51
2023-04-18T00:23:59.366Z,6.12
2023-04-18T00:26:27.268Z,6.59
2023-04-18T00:28:54.249Z,6.59
2023-04-18T00:31:21.031Z,6.03
2023-04-18T00:33:48.094Z,4.69
2023-04-18T00:36:15.713Z,5.50
2023-04-18T00:38:42.544Z,5.81
2023-04-18T00:41:09.455Z,4.91
2023-04-18T00:43:37.228Z,4.63
2023-04-18T00:46:04.386Z,4.82
2023-04-18T00:48:31.558Z,6.35
2023-04-18T00:51:00.336Z,5.42
2023-04-18T00:53:28.182Z,5.85
2023-04-18T00:55:55.330Z,5.16
2023-04-18T00:58:22.477Z,4.71
2023-04-18T01:00:49.855Z,4.84
2023-04-18T01:03:18.531Z,4.61
2023-04-18T01:05:46.881Z,4.91
2023-04-18T01:08:14.280Z,4.12
2023-04-18T01:10:41.435Z,4.63
2023-04-18T01:13:16.055Z,4.98
2023-04-18T01:15:44.458Z,5.85
2023-04-18T01:18:13.352Z,5.24
2023-04-18T01:20:45.848Z,5.16
2023-04-18T01:23:13.361Z,5.94
2023-04-18T01:25:40.477Z,5.74
2023-04-18T01:28:07.511Z,4.47
2023-04-18T01:30:35.072Z,4.66
2023-04-18T01:33:03.501Z,4.43
2023-04-18T01:35:31.081Z,5.23
2023-04-18T01:37:58.412Z,5.18
2023-04-18T01:40:27.522Z,5.87
2023-04-18T01:42:54.446Z,5.87
2023-04-18T01:45:22.444Z,4.93
2023-04-18T01:47:50.101Z,4.22
2023-04-18T01:50:16.912Z,4.95
2023-04-18T01:52:43.749Z,4.98
2023-04-18T01:55:10.746Z,5.82
2023-04-18T01:57:38.297Z,5.47
2023-04-18T02:00:06.396Z,4.96
2023-04-18T02:02:41.379Z,4.55
2023-04-18T02:05:09.061Z,5.06
2023-04-18T02:07:38.716Z,3.64
2023-04-18T02:10:06.347Z,5.20
2023-04-18T02:12:34.705Z,4.69
2023-04-18T02:15:01.874Z,5.03
2023-04-18T02:17:28.972Z,5.61
2023-04-18T02:19:55.887Z,4.72
2023-04-18T02:22:22.783Z,6.00
2023-04-18T02:24:50.404Z,6.11
2023-04-18T02:27:18.864Z,6.14
2023-04-18T02:29:45.947Z,5.54
2023-04-18T02:32:12.707Z,5.55
2023-04-18T02:34:39.522Z,5.48
2023-04-18T02:37:06.556Z,5.73
2023-04-18T02:39:33.300Z,5.96
2023-04-18T02:42:01.598Z,5.56
2023-04-18T02:44:28.473Z,5.47
2023-04-18T02:46:55.210Z,4.73
2023-04-18T02:49:22.166Z,5.22
2023-04-18T02:51:49.218Z,4.00
2023-04-18T02:54:16.643Z,5.97
2023-04-18T02:56:54.427Z,5.01
2023-04-18T02:59:44.011Z,4.79
2023-04-18T03:02:24.775Z,3.75
2023-04-18T03:04:56.614Z,5.01
2023-04-18T03:07:23.950Z,4.31
2023-04-18T03:09:52.224Z,5.43
2023-04-18T03:12:24.008Z,4.80
2023-04-18T03:14:51.779Z,5.20
2023-04-18T03:17:20.208Z,5.44
2023-04-18T03:19:49.327Z,5.31
2023-04-18T03:22:19.366Z,5.79
2023-04-18T03:24:53.145Z,5.46
2023-04-18T03:27:21.059Z,4.97
2023-04-18T03:29:48.292Z,5.38
2023-04-18T03:32:15.589Z,5.11
2023-04-18T03:34:42.299Z,3.57
2023-04-18T03:37:09.849Z,5.22
2023-04-18T03:39:42.918Z,5.38
2023-04-18T03:42:09.907Z,5.20
2023-04-18T03:44:37.247Z,4.55
2023-04-18T03:47:04.695Z,4.87
2023-04-18T03:49:33.976Z,5.78
2023-04-18T03:52:03.725Z,4.94
2023-04-18T03:54:37.408Z,4.80
2023-04-18T03:57:04.759Z,3.89
2023-04-18T03:59:32.949Z,5.20
2023-04-18T04:02:00.335Z,5.06
2023-04-18T04:04:27.362Z,5.56
2023-04-18T04:06:54.435Z,5.26
2023-04-18T04:09:21.343Z,4.69
2023-04-18T04:11:50.488Z,4.39
2023-04-18T04:14:17.230Z,4.00
2023-04-18T04:16:46.208Z,5.00
2023-04-18T04:19:16.126Z,4.35
2023-04-18T04:21:54.839Z,4.24
2023-04-18T04:24:22.776Z,3.33
2023-04-18T04:26:51.516Z,3.45
2023-04-18T04:29:23.876Z,3.17
2023-04-18T04:31:51.835Z,2.94
2023-04-18T04:34:29.698Z,2.54
2023-04-18T04:36:57.432Z,4.06
2023-04-18T04:39:26.307Z,3.43
2023-04-18T04:42:12.234Z,3.99
2023-04-18T04:44:49.199Z,3.64
2023-04-18T04:47:16.671Z,3.29
2023-04-18T04:49:44.070Z,3.01
2023-04-18T04:52:10.936Z,3.92
2023-04-18T04:54:38.128Z,2.28
2023-04-18T04:57:07.099Z,3.62
2023-04-18T04:59:33.938Z,3.32
2023-04-18T05:02:00.897Z,3.00
2023-04-18T05:04:27.888Z,2.85
2023-04-18T05:06:54.904Z,3.08
2023-04-18T05:09:22.075Z,3.19
2023-04-18T05:11:49.574Z,3.32
2023-04-18T05:14:17.703Z,2.26
2023-04-18T05:16:44.589Z,2.66
2023-04-18T05:19:11.380Z,4.20
2023-04-18T05:21:38.357Z,3.06
2023-04-18T05:24:05.728Z,1.56
2023-04-18T05:26:32.535Z,2.99
2023-04-18T05:28:59.236Z,2.76
2023-04-18T05:31:26.839Z,3.13
2023-04-18T05:33:53.603Z,3.48
2023-04-18T05:36:20.891Z,2.44
2023-04-18T05:38:47.611Z,2.71
2023-04-18T05:41:14.454Z,2.41
2023-04-18T05:43:42.922Z,3.38
2023-04-18T05:46:09.846Z,2.42
2023-04-18T05:48:37.578Z,4.00
2023-04-18T05:51:06.121Z,2.85
2023-04-18T05:53:32.874Z,2.89
2023-04-18T05:55:59.963Z,3.52
2023-04-18T05:58:28.787Z,3.34
2023-04-18T06:00:56.317Z,3.45
2023-04-18T06:03:23.935Z,2.96
2023-04-18T06:05:51.358Z,3.85
2023-04-18T06:08:18.221Z,2.50
2023-04-18T06:10:44.913Z,2.76
2023-04-18T06:13:11.957Z,3.55
2023-04-18T06:15:39.220Z,2.94
2023-04-18T06:18:06.660Z,3.02
2023-04-18T06:20:33.476Z,3.25
2023-04-18T06:23:00.249Z,3.98
2023-04-18T06:25:27.440Z,4.50
2023-04-18T06:27:54.271Z,3.48
2023-04-18T06:30:22.987Z,3.33
2023-04-18T06:32:49.900Z,4.17
2023-04-18T06:35:16.934Z,3.90
2023-04-18T06:37:44.894Z,5.04
2023-04-18T06:40:12.452Z,4.44
2023-04-18T06:42:39.562Z,4.48
2023-04-18T06:45:08.214Z,5.32
2023-04-18T06:47:35.058Z,4.27
2023-04-18T06:50:02.090Z,4.17
2023-04-18T06:52:28.897Z,4.79
2023-04-18T06:54:55.620Z,6.28
2023-04-18T06:57:23.264Z,5.81
2023-04-18T06:59:49.931Z,5.15
2023-04-18T07:02:17.138Z,6.93
2023-04-18T07:04:44.095Z,5.70
2023-04-18T07:07:10.959Z,5.75
2023-04-18T07:09:38.417Z,6.35
2023-04-18T07:12:05.610Z,6.04
2023-04-18T07:14:34.087Z,4.68
2023-04-18T07:17:01.858Z,4.47
2023-04-18T07:19:28.709Z,5.01
2023-04-18T07:21:56.071Z,3.61
2023-04-18T07:24:23.692Z,5.57
2023-04-18T07:26:55.025Z,3.98
2023-04-18T07:29:22.228Z,6.18
2023-04-18T07:31:49.448Z,6.38
2023-04-18T07:34:16.269Z,5.62
2023-04-18T07:36:43.079Z,6.06
2023-04-18T07:39:10.838Z,6.69
2023-04-18T07:41:38.462Z,4.94
2023-04-18T07:44:05.408Z,7.30
2023-04-18T07:46:33.949Z,6.35
2023-04-18T07:49:02.409Z,8.04
2023-04-18T07:51:31.996Z,5.54
2023-04-18T07:53:59.617Z,8.42
2023-04-18T07:56:28.530Z,8.59
2023-04-18T07:58:55.710Z,6.34
2023-04-18T08:01:24.882Z,8.56
2023-04-18T08:03:53.979Z,7.39
2023-04-18T08:06:21.457Z,8.54
2023-04-18T08:08:48.698Z,9.38
2023-04-18T08:11:15.473Z,7.87
2023-04-18T08:13:42.247Z,7.41
2023-04-18T08:16:09.977Z,6.75
2023-04-18T08:18:37.758Z,6.77
2023-04-18T08:21:04.894Z,7.19
2023-04-18T08:23:31.607Z,5.71
2023-04-18T08:25:58.403Z,7.65
2023-04-18T08:28:25.705Z,7.11
2023-04-18T08:30:55.254Z,7.86
2023-04-18T08:33:24.221Z,7.33
2023-04-18T08:35:51.683Z,7.82
2023-04-18T08:38:19.446Z,7.45
2023-04-18T08:40:47.225Z,6.48
2023-04-18T08:43:15.286Z,5.12
2023-04-18T08:45:43.582Z,5.67
2023-04-18T08:48:17.917Z,6.89
2023-04-18T08:50:45.396Z,6.52
2023-04-18T08:53:12.285Z,6.95
2023-04-18T08:55:40.544Z,6.57
2023-04-18T08:58:08.154Z,8.29
2023-04-18T09:00:35.277Z,8.18
2023-04-18T09:03:03.246Z,8.19
2023-04-18T09:05:30.165Z,7.50
2023-04-18T09:07:56.931Z,9.30
2023-04-18T09:10:29.075Z,8.26
2023-04-18T09:12:57.898Z,8.30
2023-04-18T09:15:29.614Z,9.23
2023-04-18T09:17:58.842Z,8.54
2023-04-18T09:20:35.864Z,8.97
2023-04-18T09:23:11.352Z,8.01
2023-04-18T09:25:48.306Z,7.58
2023-04-18T09:28:29.285Z,8.94
2023-04-18T09:30:58.159Z,6.72
2023-04-18T09:33:32.590Z,8.79
2023-04-18T09:36:21.552Z,6.70
2023-04-18T09:38:50.195Z,9.40
2023-04-18T09:41:20.074Z,7.19
2023-04-18T09:43:48.724Z,7.74
2023-04-18T09:46:17.726Z,8.52
2023-04-18T09:48:44.833Z,8.62
2023-04-18T09:51:15.737Z,8.21
2023-04-18T09:53:45.053Z,7.64
2023-04-18T09:56:26.249Z,6.70
2023-04-18T09:58:57.288Z,6.68
2023-04-18T10:01:28.332Z,5.56
2023-04-18T10:03:57.383Z,8.00
2023-04-18T10:06:27.434Z,6.89
2023-04-18T10:08:55.619Z,7.67
2023-04-18T10:11:24.338Z,7.13
2023-04-18T10:13:55.913Z,6.66
2023-04-18T10:16:23.110Z,6.24
2023-04-18T10:18:51.370Z,5.84
2023-04-18T10:21:18.110Z,6.29
2023-04-18T10:23:49.208Z,8.24
2023-04-18T10:26:16.339Z,8.17
2023-04-18T10:28:55.641Z,8.26
2023-04-18T10:31:27.024Z,7.27
2023-04-18T10:34:04.669Z,6.52
2023-04-18T10:36:33.164Z,6.60
2023-04-18T10:39:21.167Z,7.20
2023-04-18T10:41:51.643Z,7.67
2023-04-18T10:44:25.825Z,7.24
2023-04-18T10:46:52.712Z,6.84
2023-04-18T10:49:35.433Z,8.74
2023-04-18T10:52:06.013Z,5.92
2023-04-18T10:54:47.201Z,7.19
2023-04-18T10:57:15.260Z,8.63
2023-04-18T10:59:44.466Z,6.42
2023-04-18T11:02:24.726Z,6.02
2023-04-18T11:04:57.140Z,7.88
2023-04-18T11:07:48.733Z,8.35
2023-04-18T11:10:23.791Z,8.79
2023-04-18T11:12:52.180Z,8.05
2023-04-18T11:15:22.185Z,7.98
2023-04-18T11:17:57.574Z,6.93
2023-04-18T11:20:25.964Z,6.10
2023-04-18T11:23:00.528Z,5.06
2023-04-18T11:25:32.648Z,5.74
2023-04-18T11:28:00.978Z,7.37
2023-04-18T11:30:31.362Z,8.30
2023-04-18T11:32:58.163Z,8.71
2023-04-18T11:35:25.111Z,8.28
2023-04-18T11:37:52.141Z,7.63
2023-04-18T11:40:18.925Z,7.89
2023-04-18T11:42:45.769Z,8.50
2023-04-18T11:45:14.177Z,9.62
2023-04-18T11:47:43.265Z,8.46
2023-04-18T11:50:13.062Z,7.84
2023-04-18T11:52:42.674Z,8.60
2023-04-18T11:55:17.512Z,8.42
2023-04-18T11:57:55.111Z,8.85
2023-04-18T12:00:40.165Z,7.68
2023-04-18T12:03:15.737Z,7.26
2023-04-18T12:05:43.250Z,7.61
2023-04-18T12:08:13.998Z,9.62
2023-04-18T12:10:52.288Z,10.01
2023-04-18T12:13:25.505Z,7.71
2023-04-18T12:15:52.714Z,8.32
2023-04-18T12:18:20.261Z,8.40
2023-04-18T12:20:58.624Z,7.67
2023-04-18T12:23:40.469Z,7.26
2023-04-18T12:26:22.932Z,7.58
2023-04-18T12:28:51.593Z,7.76
2023-04-18T12:31:18.361Z,6.48
2023-04-18T12:33:45.203Z,6.91
2023-04-18T12:36:12.959Z,7.04
2023-04-18T12:38:39.708Z,7.40
2023-04-18T12:41:06.922Z,6.78
2023-04-18T12:43:33.629Z,7.00
2023-04-18T12:46:00.623Z,7.99
2023-04-18T12:48:28.249Z,7.64
2023-04-18T12:50:55.648Z,10.08
2023-04-18T12:53:22.401Z,7.22
2023-04-18T12:55:49.298Z,7.77
2023-04-18T12:58:18.695Z,6.87
2023-04-18T13:00:46.251Z,8.90
2023-04-18T13:03:13.749Z,9.72
2023-04-18T13:05:42.213Z,8.13
2023-04-18T13:08:16.820Z,8.22
2023-04-18T13:10:46.217Z,8.71
2023-04-18T13:13:13.554Z,8.59
2023-04-18T13:15:40.924Z,9.44
2023-04-18T13:18:08.013Z,8.92
2023-04-18T13:20:35.511Z,8.75
2023-04-18T13:23:02.999Z,9.09
2023-04-18T13:25:29.829Z,8.34
2023-04-18T13:27:58.661Z,8.35
2023-04-18T13:30:26.756Z,7.73
2023-04-18T13:32:55.053Z,8.85
2023-04-18T13:35:22.866Z,7.94
2023-04-18T13:37:49.651Z,8.76
2023-04-18T13:40:16.429Z,7.73
2023-04-18T13:42:43.496Z,7.41
2023-04-18T13:45:11.476Z,7.89
2023-04-18T13:47:38.385Z,7.04
2023-04-18T13:50:06.181Z,6.92
2023-04-18T13:52:33.343Z,7.98
2023-04-18T13:55:00.080Z,8.32
2023-04-18T13:57:28.819Z,7.64
2023-04-18T13:59:56.404Z,6.87
2023-04-18T14:02:23.340Z,8.32
2023-04-18T14:04:52.189Z,7.14
2023-04-18T14:07:19.037Z,6.18
2023-04-18T14:09:48.199Z,6.10
2023-04-18T14:12:15.039Z,5.40
2023-04-18T14:14:43.107Z,6.30
2023-04-18T14:17:09.859Z,6.53
2023-04-18T14:19:36.724Z,7.39
2023-04-18T14:22:03.544Z,6.96
2023-04-18T14:24:30.259Z,8.02
2023-04-18T14:26:57.178Z,6.39
2023-04-18T14:29:23.920Z,7.80
2023-04-18T14:31:50.733Z,7.47
2023-04-18T14:34:17.485Z,7.39
2023-04-18T14:36:44.771Z,6.67
2023-04-18T14:39:12.135Z,7.37
2023-04-18T14:41:39.005Z,7.62
2023-04-18T14:44:05.864Z,7.09
2023-04-18T14:46:32.660Z,7.67
2023-04-18T14:49:00.033Z,7.86
2023-04-18T14:51:28.732Z,7.16
2023-04-18T14:53:55.830Z,7.42
2023-04-18T14:56:24.311Z,6.77
2023-04-18T14:58:51.110Z,5.98
2023-04-18T15:01:17.852Z,8.14
2023-04-18T15:03:45.516Z,6.69
2023-04-18T15:06:13.758Z,7.11
2023-04-18T15:08:40.867Z,8.39
2023-04-18T15:11:08.348Z,7.80
2023-04-18T15:13:35.386Z,6.75
2023-04-18T15:16:02.929Z,6.87
2023-04-18T15:18:30.044Z,7.12
2023-04-18T15:20:59.813Z,7.70
2023-04-18T15:23:27.826Z,7.35
2023-04-18T15:25:54.698Z,6.64
2023-04-18T15:28:21.527Z,8.67
2023-04-18T15:30:48.308Z,7.51
2023-04-18T15:33:15.942Z,8.65
2023-04-18T15:35:42.880Z,8.10
2023-04-18T15:38:09.644Z,6.55
2023-04-18T15:40:36.635Z,5.74
2023-04-18T15:43:04.156Z,7.79
2023-04-18T15:45:31.316Z,8.21
2023-04-18T15:47:59.236Z,8.58
2023-04-18T15:50:26.344Z,7.53
2023-04-18T15:52:53.266Z,8.58
2023-04-18T15:55:20.040Z,9.17
2023-04-18T15:57:47.048Z,7.76
2023-04-18T16:00:20.904Z,7.04
2023-04-18T16:02:47.797Z,8.19
2023-04-18T16:05:15.577Z,7.92
2023-04-18T16:07:43.040Z,6.55
2023-04-18T16:10:11.248Z,5.96
2023-04-18T16:12:39.558Z,6.98
2023-04-18T16:15:08.709Z,6.40
2023-04-18T16:17:39.019Z,7.21
2023-04-18T16:20:08.520Z,7.97
2023-04-18T16:22:35.467Z,8.82
2023-04-18T16:25:02.339Z,7.11
2023-04-18T16:27:30.636Z,8.17
2023-04-18T16:29:58.284Z,6.83
2023-04-18T16:32:25.326Z,9.30
2023-04-18T16:34:52.248Z,8.92
2023-04-18T16:37:19.064Z,7.78
2023-04-18T16:39:47.289Z,5.98
2023-04-18T16:42:15.856Z,6.75
2023-04-18T16:44:44.831Z,7.62
2023-04-18T16:47:11.684Z,7.39
2023-04-18T16:49:39.203Z,7.14
2023-04-18T16:52:06.021Z,7.17
2023-04-18T16:54:32.802Z,7.43
2023-04-18T16:57:00.000Z,7.50
2023-04-18T16:59:26.889Z,5.96
2023-04-18T17:01:53.782Z,7.38
2023-04-18T17:04:21.404Z,6.26
2023-04-18T17:06:48.600Z,5.45
2023-04-18T17:09:16.731Z,7.03
2023-04-18T17:11:43.927Z,6.07
2023-04-18T17:14:11.561Z,7.22
2023-04-18T17:16:40.609Z,5.70
2023-04-18T17:19:08.385Z,5.42
2023-04-18T17:21:35.977Z,7.85
2023-04-18T17:24:03.980Z,8.39
2023-04-18T17:26:31.595Z,6.33
2023-04-18T17:29:00.130Z,7.38
2023-04-18T17:31:27.404Z,6.72
2023-04-18T17:33:54.797Z,6.93
2023-04-18T17:36:21.629Z,7.68
2023-04-18T17:38:51.066Z,7.12
2023-04-18T17:41:20.097Z,7.90
2023-04-18T17:43:48.129Z,7.93
2023-04-18T17:46:15.643Z,7.07
2023-04-18T17:48:42.716Z,7.46
2023-04-18T17:51:10.053Z,6.25
2023-04-18T17:53:36.777Z,6.56
2023-04-18T17:56:03.852Z,6.16
2023-04-18T17:58:31.523Z,6.00
2023-04-18T18:00:58.387Z,5.65
2023-04-18T18:03:25.947Z,5.17
2023-04-18T18:05:55.212Z,6.82
2023-04-18T18:08:22.710Z,8.15
2023-04-18T18:10:49.927Z,6.75
2023-04-18T18:13:17.146Z,6.30
2023-04-18T18:15:44.404Z,6.41
2023-04-18T18:18:11.479Z,7.86
2023-04-18T18:20:41.001Z,7.65
2023-04-18T18:23:07.735Z,6.87
2023-04-18T18:25:37.074Z,6.49
2023-04-18T18:28:04.136Z,7.34
2023-04-18T18:30:30.986Z,6.95
2023-04-18T18:32:58.028Z,6.95
2023-04-18T18:35:24.901Z,7.71
2023-04-18T18:37:51.771Z,6.99
2023-04-18T18:40:18.623Z,7.17
2023-04-18T18:42:46.204Z,6.24
2023-04-18T18:45:12.975Z,7.34
2023-04-18T18:47:40.389Z,7.78
2023-04-18T18:50:07.760Z,7.60
2023-04-18T18:52:34.602Z,7.11
2023-04-18T18:55:01.648Z,6.72
2023-04-18T18:57:28.519Z,7.72
2023-04-18T18:59:56.091Z,7.68
2023-04-18T19:02:23.171Z,7.60
2023-04-18T19:04:50.276Z,6.93
2023-04-18T19:07:17.536Z,6.45
2023-04-18T19:09:46.012Z,6.79
2023-04-18T19:12:13.016Z,6.78
2023-04-18T19:14:41.884Z,6.27
2023-04-18T19:17:09.234Z,6.24
2023-04-18T19:19:36.319Z,7.08
2023-04-18T19:22:03.060Z,6.37
2023-04-18T19:24:31.981Z,6.44
2023-04-18T19:27:00.425Z,5.85
2023-04-18T19:29:27.071Z,7.45
2023-04-18T19:31:54.371Z,5.56
2023-04-18T19:34:22.291Z,5.90
2023-04-18T19:36:49.241Z,6.41
2023-04-18T19:39:18.215Z,7.64
2023-04-18T19:41:46.644Z,5.81
2023-04-18T19:44:13.359Z,7.42
2023-04-18T19:46:40.585Z,5.91
2023-04-18T19:49:07.477Z,6.57
2023-04-18T19:51:34.275Z,6.48
2023-04-18T19:54:02.631Z,5.92
2023-04-18T19:56:29.364Z,6.77
2023-04-18T19:58:57.889Z,6.92
2023-04-18T20:01:27.695Z,7.12
2023-04-18T20:03:57.538Z,6.41
2023-04-18T20:06:26.631Z,6.88
2023-04-18T20:08:56.316Z,5.51
2023-04-18T20:11:23.079Z,6.35
2023-04-18T20:13:52.178Z,7.06
2023-04-18T20:16:18.947Z,7.45
2023-04-18T20:18:47.536Z,5.62
2023-04-18T20:21:14.365Z,6.93
2023-04-18T20:23:42.596Z,6.36
2023-04-18T20:26:09.451Z,6.30
2023-04-18T20:28:37.875Z,6.96
2023-04-18T20:31:04.898Z,7.22
2023-04-18T20:33:33.129Z,5.45
2023-04-18T20:36:00.569Z,6.46
2023-04-18T20:38:29.854Z,6.30
2023-04-18T20:40:58.812Z,6.10
2023-04-18T20:43:26.822Z,5.97
2023-04-18T20:45:57.772Z,6.72
2023-04-18T20:48:24.757Z,4.93
2023-04-18T20:50:51.655Z,7.20
2023-04-18T20:53:22.526Z,4.83
2023-04-18T20:55:49.372Z,6.92
2023-04-18T20:58:16.172Z,6.03
2023-04-18T21:00:44.651Z,7.31
2023-04-18T21:03:16.217Z,7.59
2023-04-18T21:05:44.422Z,6.08
2023-04-18T21:08:11.431Z,5.98
2023-04-18T21:10:38.267Z,5.87
2023-04-18T21:13:05.272Z,6.47
2023-04-18T21:15:32.651Z,5.77
2023-04-18T21:17:59.655Z,7.53
2023-04-18T21:20:26.890Z,6.92
2023-04-18T21:22:53.590Z,7.81
2023-04-18T21:25:21.391Z,6.56
2023-04-18T21:27:50.457Z,7.10
2023-04-18T21:30:18.246Z,6.31
2023-04-18T21:32:46.598Z,6.76
2023-04-18T21:35:13.431Z,7.17
2023-04-18T21:37:40.253Z,7.91
2023-04-18T21:40:07.764Z,6.66
2023-04-18T21:42:35.520Z,6.91
2023-04-18T21:45:03.212Z,6.45
2023-04-18T21:47:30.134Z,6.04
2023-04-18T21:49:56.872Z,4.61
2023-04-18T21:52:23.597Z,6.64
2023-04-18T21:54:50.375Z,6.84
2023-04-18T21:57:17.570Z,5.87
2023-04-18T21:59:44.508Z,6.13
2023-04-18T22:02:11.549Z,7.55
2023-04-18T22:04:42.541Z,7.50
2023-04-18T22:07:09.916Z,6.77
2023-04-18T22:09:37.126Z,7.29
2023-04-18T22:12:04.726Z,5.70
2023-04-18T22:14:32.470Z,6.66
2023-04-18T22:17:01.932Z,6.73
2023-04-18T22:19:29.545Z,7.34
2023-04-18T22:21:56.865Z,6.70
2023-04-18T22:24:24.628Z,6.25
2023-04-18T22:26:51.745Z,6.25
2023-04-18T22:29:18.527Z,7.42
2023-04-18T22:31:45.511Z,6.50
2023-04-18T22:34:12.344Z,6.95
2023-04-18T22:36:39.139Z,6.84
2023-04-18T22:39:06.381Z,5.76
2023-04-18T22:41:33.455Z,6.45
2023-04-18T22:44:00.417Z,5.89
2023-04-18T22:46:27.265Z,5.13
2023-04-18T22:48:54.400Z,7.10
2023-04-18T22:51:21.189Z,5.69
2023-04-18T22:53:48.594Z,5.66
2023-04-18T22:56:16.236Z,6.39
2023-04-18T22:58:43.280Z,7.31
2023-04-18T23:01:10.137Z,7.24
2023-04-18T23:03:36.984Z,5.82
2023-04-18T23:06:03.920Z,7.49
2023-04-18T23:08:31.003Z,6.25
2023-04-18T23:10:57.930Z,7.14
2023-04-18T23:13:24.684Z,7.01
2023-04-18T23:15:51.431Z,6.83
2023-04-18T23:18:18.705Z,6.64
2023-04-18T23:20:45.967Z,7.23
2023-04-18T23:23:13.174Z,7.99
2023-04-18T23:25:39.973Z,6.31
2023-04-18T23:28:06.971Z,7.01
2023-04-18T23:30:36.876Z,7.17
2023-04-18T23:33:03.973Z,6.49
2023-04-18T23:35:31.075Z,6.70
2023-04-18T23:37:57.899Z,7.57
2023-04-18T23:40:24.815Z,6.99
2023-04-18T23:42:51.585Z,7.55
2023-04-18T23:45:18.987Z,7.36
2023-04-18T23:47:45.746Z,4.50
2023-04-18T23:50:13.254Z,6.39
2023-04-18T23:52:40.568Z,6.68
2023-04-18T23:55:07.953Z,6.77
2023-04-18T23:57:35.053Z,7.24
